createdAt,value
2019-01-18T00:00:59.855Z,1.53
2019-01-18T00:03:27.871Z,2.37
2019-01-18T00:05:56.263Z,1.30
2019-01-18T00:08:24.180Z,2.10
2019-01-18T00:10:52.143Z,1.60
2019-01-18T00:13:20.088Z,1.60
2019-01-18T00:15:49.304Z,1.80
2019-01-18T00:18:17.179Z,2.10
2019-01-18T00:20:45.064Z,1.67
2019-01-18T00:23:13.040Z,1.83
2019-01-18T00:25:40.963Z,2.07
2019-01-18T00:28:09.135Z,1.60
2019-01-18T00:30:37.195Z,1.37
2019-01-18T00:33:05.018Z,1.83
2019-01-18T00:35:33.187Z,2.00
2019-01-18T00:38:01.101Z,2.13
2019-01-18T00:40:29.054Z,1.67
2019-01-18T00:42:57.535Z,2.30
2019-01-18T00:45:25.483Z,2.07
2019-01-18T00:47:53.418Z,1.77
2019-01-18T00:50:21.348Z,1.50
2019-01-18T00:52:49.312Z,1.90
2019-01-18T00:55:17.249Z,1.70
2019-01-18T00:57:45.148Z,1.53
2019-01-18T01:00:14.663Z,1.57
2019-01-18T01:02:42.938Z,1.60
2019-01-18T01:05:11.293Z,2.30
2019-01-18T01:07:39.386Z,2.07
2019-01-18T01:10:07.898Z,2.00
2019-01-18T01:12:35.799Z,1.80
2019-01-18T01:15:06.206Z,1.90
2019-01-18T01:17:34.256Z,2.27
2019-01-18T01:20:03.133Z,2.13
2019-01-18T01:22:32.380Z,1.90
2019-01-18T01:25:00.266Z,2.20
2019-01-18T01:27:28.240Z,1.80
2019-01-18T01:29:56.203Z,1.73
2019-01-18T01:32:24.115Z,1.80
2019-01-18T01:34:52.147Z,1.93
2019-01-18T01:37:20.208Z,1.80
2019-01-18T01:39:48.086Z,1.90
2019-01-18T01:42:16.204Z,1.50
2019-01-18T01:44:44.149Z,1.80
2019-01-18T01:47:12.400Z,2.00
2019-01-18T01:49:40.344Z,1.73
2019-01-18T01:52:08.234Z,1.43
2019-01-18T01:54:36.357Z,2.10
2019-01-18T01:57:04.350Z,2.03
2019-01-18T01:59:32.270Z,2.10
2019-01-18T02:02:00.216Z,1.37
2019-01-18T02:04:29.354Z,1.90
2019-01-18T02:06:57.275Z,1.97
2019-01-18T02:09:25.179Z,1.60
2019-01-18T02:11:53.094Z,1.60
2019-01-18T02:14:21.080Z,2.07
2019-01-18T02:16:49.223Z,2.07
2019-01-18T02:19:18.494Z,2.07
2019-01-18T02:21:46.459Z,1.60
2019-01-18T02:24:14.392Z,1.63
2019-01-18T02:26:42.315Z,1.80
2019-01-18T02:29:10.306Z,1.40
2019-01-18T02:31:38.261Z,1.57
2019-01-18T02:34:06.199Z,1.80
2019-01-18T02:36:34.425Z,1.80
2019-01-18T02:39:02.626Z,1.63
2019-01-18T02:41:30.591Z,1.80
2019-01-18T02:43:58.494Z,1.97
2019-01-18T02:46:26.536Z,1.90
2019-01-18T02:48:54.508Z,1.87
2019-01-18T02:51:22.636Z,1.60
2019-01-18T02:53:50.674Z,1.87
2019-01-18T02:56:18.561Z,1.80
2019-01-18T02:58:46.504Z,1.80
2019-01-18T03:01:14.503Z,1.60
2019-01-18T03:03:42.419Z,1.40
2019-01-18T03:06:10.397Z,1.50
2019-01-18T03:08:38.485Z,2.13
2019-01-18T03:11:06.427Z,1.90
2019-01-18T03:13:34.334Z,1.70
2019-01-18T03:16:02.401Z,1.83
2019-01-18T03:18:30.264Z,1.70
2019-01-18T03:20:58.613Z,1.80
2019-01-18T03:23:26.634Z,2.13
2019-01-18T03:25:56.356Z,1.93
2019-01-18T03:28:24.243Z,1.50
2019-01-18T03:30:52.241Z,2.00
2019-01-18T03:33:20.201Z,1.93
2019-01-18T03:35:48.186Z,2.27
2019-01-18T03:38:16.196Z,1.90
2019-01-18T03:40:44.151Z,2.20
2019-01-18T03:43:12.113Z,1.50
2019-01-18T03:45:43.194Z,1.53
2019-01-18T03:48:11.186Z,1.70
2019-01-18T03:50:39.090Z,1.80
2019-01-18T03:53:07.068Z,1.63
2019-01-18T03:55:35.131Z,1.87
2019-01-18T03:58:03.023Z,2.00
2019-01-18T04:00:30.967Z,1.50
2019-01-18T04:02:59.029Z,2.00
2019-01-18T04:05:27.109Z,1.90
2019-01-18T04:07:55.002Z,1.87
2019-01-18T04:10:23.021Z,1.90
2019-01-18T04:12:51.378Z,1.63
2019-01-18T04:15:19.738Z,1.63
2019-01-18T04:17:47.651Z,1.70
2019-01-18T04:20:16.416Z,2.20
2019-01-18T04:22:44.315Z,1.93
2019-01-18T04:25:14.659Z,2.03
2019-01-18T04:27:42.652Z,2.10
2019-01-18T04:30:12.012Z,1.70
2019-01-18T04:32:40.036Z,2.90
2019-01-18T04:35:08.147Z,1.73
2019-01-18T04:37:36.055Z,2.13
2019-01-18T04:40:06.071Z,2.10
2019-01-18T04:42:34.091Z,1.77
2019-01-18T04:45:04.967Z,1.80
2019-01-18T04:47:32.950Z,1.50
2019-01-18T04:50:00.871Z,1.43
2019-01-18T04:52:28.813Z,1.60
2019-01-18T04:54:57.250Z,1.87
2019-01-18T04:57:26.587Z,1.80
2019-01-18T04:59:54.711Z,1.87
2019-01-18T05:02:22.740Z,2.00
2019-01-18T05:04:51.456Z,1.60
2019-01-18T05:07:19.370Z,2.03
2019-01-18T05:09:47.420Z,1.90
2019-01-18T05:12:15.302Z,2.40
2019-01-18T05:14:44.175Z,2.73
2019-01-18T05:17:12.159Z,2.53
2019-01-18T05:19:41.535Z,2.40
2019-01-18T05:22:09.603Z,2.37
2019-01-18T05:24:37.646Z,2.03
2019-01-18T05:27:14.700Z,2.27
2019-01-18T05:29:42.960Z,2.30
2019-01-18T05:32:10.905Z,2.63
2019-01-18T05:34:38.898Z,2.30
2019-01-18T05:37:06.962Z,1.93
2019-01-18T05:39:34.923Z,2.10
2019-01-18T05:42:02.866Z,2.27
2019-01-18T05:44:30.800Z,2.17
2019-01-18T05:46:58.686Z,2.10
2019-01-18T05:49:26.607Z,2.20
2019-01-18T05:51:54.531Z,1.70
2019-01-18T05:54:22.951Z,2.33
2019-01-18T05:56:52.495Z,2.17
2019-01-18T05:59:20.442Z,2.10
2019-01-18T06:01:49.512Z,2.03
2019-01-18T06:04:17.678Z,2.00
2019-01-18T06:06:45.677Z,2.90
2019-01-18T06:09:13.544Z,2.50
2019-01-18T06:11:41.476Z,2.27
2019-01-18T06:14:09.418Z,2.50
2019-01-18T06:16:37.369Z,2.00
2019-01-18T06:19:06.546Z,1.77
2019-01-18T06:21:37.859Z,2.77
2019-01-18T06:24:05.952Z,2.17
2019-01-18T06:26:33.916Z,2.20
2019-01-18T06:29:03.227Z,2.43
2019-01-18T06:31:31.306Z,2.27
2019-01-18T06:33:59.571Z,2.40
2019-01-18T06:36:27.533Z,2.30
2019-01-18T06:38:55.552Z,2.30
2019-01-18T06:41:38.844Z,2.23
2019-01-18T06:44:06.730Z,2.50
2019-01-18T06:46:34.844Z,2.60
2019-01-18T06:49:03.232Z,2.77
2019-01-18T06:51:31.199Z,2.77
2019-01-18T06:53:59.166Z,3.80
2019-01-18T06:56:27.679Z,3.33
2019-01-18T06:58:55.669Z,3.40
2019-01-18T07:01:23.664Z,3.03
2019-01-18T07:03:51.772Z,2.50
2019-01-18T07:06:19.809Z,2.80
2019-01-18T07:08:47.727Z,2.97
2019-01-18T07:11:15.601Z,2.90
2019-01-18T07:13:43.618Z,3.40
2019-01-18T07:16:11.484Z,3.27
2019-01-18T07:18:39.518Z,3.70
2019-01-18T07:21:07.471Z,3.10
2019-01-18T07:23:35.723Z,3.27
2019-01-18T07:26:03.629Z,3.37
2019-01-18T07:28:32.951Z,3.10
2019-01-18T07:31:00.954Z,3.30
2019-01-18T07:33:29.111Z,2.90
2019-01-18T07:35:57.022Z,2.63
2019-01-18T07:38:25.685Z,3.07
2019-01-18T07:40:53.707Z,2.80
2019-01-18T07:43:21.676Z,4.13
2019-01-18T07:45:49.662Z,3.00
2019-01-18T07:48:17.692Z,2.80
2019-01-18T07:50:45.890Z,3.47
2019-01-18T07:53:16.399Z,3.03
2019-01-18T07:55:44.423Z,3.20
2019-01-18T07:58:12.530Z,2.60
2019-01-18T08:00:41.884Z,3.23
2019-01-18T08:03:09.995Z,3.93
2019-01-18T08:05:38.249Z,3.40
2019-01-18T08:08:06.266Z,3.63
2019-01-18T08:10:35.112Z,4.00
2019-01-18T08:13:03.346Z,3.70
2019-01-18T08:15:31.227Z,4.57
2019-01-18T08:17:59.199Z,4.10
2019-01-18T08:20:27.781Z,3.60
2019-01-18T08:22:56.848Z,3.67
2019-01-18T08:25:24.847Z,4.00
2019-01-18T08:27:54.167Z,3.87
2019-01-18T08:30:23.222Z,3.47
2019-01-18T08:32:51.128Z,3.90
2019-01-18T08:35:19.569Z,3.70
2019-01-18T08:37:47.670Z,4.30
2019-01-18T08:40:37.907Z,3.30
2019-01-18T08:43:08.407Z,3.87
2019-01-18T08:45:37.996Z,3.87
2019-01-18T08:48:06.374Z,3.53
2019-01-18T08:50:41.793Z,4.10
2019-01-18T08:53:10.014Z,3.53
2019-01-18T08:55:38.397Z,3.80
2019-01-18T08:58:06.410Z,3.87
2019-01-18T09:00:35.997Z,3.53
2019-01-18T09:03:04.096Z,3.20
2019-01-18T09:05:33.149Z,3.40
2019-01-18T09:08:01.345Z,3.63
2019-01-18T09:10:29.331Z,3.03
2019-01-18T09:12:58.451Z,3.60
2019-01-18T09:15:26.471Z,3.60
2019-01-18T09:17:55.526Z,3.50
2019-01-18T09:20:24.611Z,3.30
2019-01-18T09:22:52.663Z,3.30
2019-01-18T09:25:22.403Z,3.37
2019-01-18T09:27:50.357Z,3.67
2019-01-18T09:30:23.055Z,3.50
2019-01-18T09:32:51.583Z,3.17
2019-01-18T09:35:20.033Z,3.43
2019-01-18T09:37:48.136Z,3.40
2019-01-18T09:40:17.627Z,3.30
2019-01-18T09:42:53.031Z,3.80
2019-01-18T09:45:21.024Z,2.60
2019-01-18T09:47:50.207Z,3.33
2019-01-18T09:50:19.290Z,3.77
2019-01-18T09:52:47.346Z,3.40
2019-01-18T09:55:15.445Z,3.53
2019-01-18T09:57:43.396Z,3.40
2019-01-18T10:00:13.529Z,3.10
2019-01-18T10:02:41.435Z,3.20
2019-01-18T10:05:09.952Z,2.67
2019-01-18T10:07:43.864Z,3.00
2019-01-18T10:10:13.452Z,3.70
2019-01-18T10:12:42.588Z,2.90
2019-01-18T10:15:11.964Z,3.57
2019-01-18T10:17:39.937Z,3.17
2019-01-18T10:20:09.139Z,3.27
2019-01-18T10:22:37.147Z,3.33
2019-01-18T10:25:05.562Z,2.70
2019-01-18T10:27:33.606Z,3.43
2019-01-18T10:30:01.732Z,2.67
2019-01-18T10:32:29.757Z,3.00
2019-01-18T10:34:57.744Z,2.67
2019-01-18T10:37:26.838Z,2.80
2019-01-18T10:39:54.797Z,3.27
2019-01-18T10:42:22.775Z,3.13
2019-01-18T10:44:50.785Z,3.37
2019-01-18T10:47:18.736Z,3.20
2019-01-18T10:49:46.596Z,2.73
2019-01-18T10:52:14.467Z,2.40
2019-01-18T10:54:42.475Z,3.20
2019-01-18T10:57:10.498Z,3.37
2019-01-18T10:59:38.477Z,2.97
2019-01-18T11:02:07.228Z,2.60
2019-01-18T11:04:35.410Z,2.53
2019-01-18T11:07:04.116Z,2.60
2019-01-18T11:09:32.363Z,2.40
2019-01-18T11:12:00.328Z,3.00
2019-01-18T11:14:28.339Z,2.43
2019-01-18T11:16:56.204Z,2.70
2019-01-18T11:19:24.118Z,2.70
2019-01-18T11:21:52.104Z,2.87
2019-01-18T11:24:20.061Z,2.17
2019-01-18T11:26:49.568Z,2.80
2019-01-18T11:29:20.682Z,2.43
2019-01-18T11:31:48.633Z,2.60
2019-01-18T11:34:16.563Z,2.80
2019-01-18T11:36:44.560Z,2.30
2019-01-18T11:39:12.683Z,2.60
2019-01-18T11:41:40.785Z,2.47
2019-01-18T11:44:08.838Z,2.67
2019-01-18T11:46:36.714Z,3.30
2019-01-18T11:49:04.671Z,2.33
2019-01-18T11:51:32.540Z,2.27
2019-01-18T11:54:00.414Z,2.70
2019-01-18T11:56:29.723Z,2.80
2019-01-18T11:58:58.819Z,2.60
2019-01-18T12:01:26.775Z,1.93
2019-01-18T12:03:54.783Z,2.30
2019-01-18T12:06:22.758Z,2.30
2019-01-18T12:08:50.693Z,3.07
2019-01-18T12:11:18.690Z,2.63
2019-01-18T12:13:46.606Z,2.73
2019-01-18T12:16:14.556Z,2.50
2019-01-18T12:18:42.461Z,2.77
2019-01-18T12:21:10.434Z,2.57
2019-01-18T12:23:38.331Z,2.70
2019-01-18T12:26:07.202Z,2.57
2019-01-18T12:28:35.183Z,2.60
2019-01-18T12:31:03.113Z,2.80
2019-01-18T12:33:31.126Z,2.37
2019-01-18T12:35:59.018Z,2.57
2019-01-18T12:38:26.863Z,2.90
2019-01-18T12:40:54.771Z,2.70
2019-01-18T12:43:22.711Z,2.90
2019-01-18T12:45:50.715Z,3.30
2019-01-18T12:48:18.803Z,3.17
2019-01-18T12:50:47.069Z,3.10
2019-01-18T12:53:16.463Z,3.50
2019-01-18T12:55:44.377Z,3.53
2019-01-18T12:58:12.334Z,3.80
2019-01-18T13:00:40.264Z,3.63
2019-01-18T13:03:08.450Z,3.50
2019-01-18T13:05:40.654Z,3.70
2019-01-18T13:08:08.616Z,3.80
2019-01-18T13:10:38.063Z,3.70
2019-01-18T13:13:06.058Z,4.17
2019-01-18T13:15:47.369Z,3.70
2019-01-18T13:18:15.288Z,4.00
2019-01-18T13:20:43.168Z,3.87
2019-01-18T13:23:11.585Z,3.87
2019-01-18T13:25:39.440Z,4.10
2019-01-18T13:28:07.382Z,3.43
2019-01-18T13:30:35.319Z,4.27
2019-01-18T13:33:03.266Z,3.80
2019-01-18T13:35:31.158Z,3.47
2019-01-18T13:38:00.404Z,3.93
2019-01-18T13:40:29.351Z,3.00
2019-01-18T13:42:57.347Z,3.30
2019-01-18T13:45:25.266Z,3.50
2019-01-18T13:47:53.207Z,3.90
2019-01-18T13:50:21.121Z,3.53
2019-01-18T13:52:49.039Z,4.00
2019-01-18T13:55:18.288Z,3.50
2019-01-18T13:57:46.231Z,3.63
2019-01-18T14:00:16.433Z,3.20
2019-01-18T14:02:48.349Z,3.50
2019-01-18T14:05:14.111Z,3.47
2019-01-18T14:07:43.249Z,3.53
2019-01-18T14:10:15.451Z,3.20
2019-01-18T14:12:43.419Z,3.17
2019-01-18T14:15:11.652Z,3.37
2019-01-18T14:17:39.834Z,3.90
2019-01-18T14:20:11.742Z,3.70
2019-01-18T14:22:38.855Z,3.70
2019-01-18T14:25:06.966Z,3.90
2019-01-18T14:27:35.616Z,3.57
2019-01-18T14:30:05.044Z,3.13
2019-01-18T14:32:33.076Z,3.37
2019-01-18T14:35:02.325Z,3.70
2019-01-18T14:37:30.321Z,4.07
2019-01-18T14:39:58.322Z,3.67
2019-01-18T14:42:26.323Z,3.90
2019-01-18T14:44:54.404Z,3.90
2019-01-18T14:47:22.402Z,4.00
2019-01-18T14:49:50.451Z,3.53
2019-01-18T14:52:18.386Z,3.60
2019-01-18T14:54:46.502Z,4.00
2019-01-18T14:57:15.688Z,3.60
2019-01-18T14:59:43.728Z,3.30
2019-01-18T15:02:11.807Z,3.50
2019-01-18T15:04:40.313Z,3.57
2019-01-18T15:07:08.304Z,4.27
2019-01-18T15:09:37.199Z,3.33
2019-01-18T15:12:05.344Z,4.03
2019-01-18T15:14:33.478Z,3.60
2019-01-18T15:17:04.509Z,3.43
2019-01-18T15:19:32.634Z,3.63
2019-01-18T15:22:00.671Z,3.77
2019-01-18T15:24:28.723Z,3.73
2019-01-18T15:26:56.863Z,3.37
2019-01-18T15:29:25.177Z,3.83
2019-01-18T15:31:53.239Z,3.43
2019-01-18T15:34:21.571Z,3.90
2019-01-18T15:37:00.136Z,3.70
2019-01-18T15:39:28.242Z,4.40
2019-01-18T15:41:56.199Z,3.63
2019-01-18T15:44:30.012Z,3.70
2019-01-18T15:46:58.350Z,4.47
2019-01-18T15:49:26.788Z,4.20
2019-01-18T15:51:54.793Z,4.27
2019-01-18T15:54:22.800Z,4.03
2019-01-18T15:56:50.751Z,4.40
2019-01-18T15:59:18.829Z,4.37
2019-01-18T16:01:46.833Z,4.10
2019-01-18T16:04:14.886Z,4.90
2019-01-18T16:06:45.117Z,4.30
2019-01-18T16:09:13.011Z,4.67
2019-01-18T16:11:41.632Z,4.70
2019-01-18T16:14:09.646Z,4.70
2019-01-18T16:16:42.698Z,4.53
2019-01-18T16:19:13.886Z,4.73
2019-01-18T16:21:43.317Z,4.60
2019-01-18T16:24:11.313Z,5.23
2019-01-18T16:26:39.357Z,5.37
2019-01-18T16:29:07.314Z,5.70
2019-01-18T16:31:35.363Z,6.00
2019-01-18T16:34:03.349Z,6.67
2019-01-18T16:36:32.366Z,6.70
2019-01-18T16:39:00.303Z,6.63
2019-01-18T16:41:30.425Z,6.10
2019-01-18T16:43:59.754Z,6.97
2019-01-18T16:46:27.803Z,6.93
2019-01-18T16:48:56.056Z,6.73
2019-01-18T16:51:25.253Z,6.90
2019-01-18T16:53:53.541Z,6.87
2019-01-18T16:56:21.581Z,7.30
2019-01-18T16:58:50.121Z,7.03
2019-01-18T17:01:18.165Z,7.63
2019-01-18T17:03:46.327Z,7.50
2019-01-18T17:06:14.363Z,6.87
2019-01-18T17:08:42.288Z,7.17
2019-01-18T17:11:10.307Z,6.90
2019-01-18T17:13:39.060Z,7.20
2019-01-18T17:16:07.217Z,7.17
2019-01-18T17:18:35.295Z,6.83
2019-01-18T17:21:03.390Z,3.40
2019-01-18T17:23:31.604Z,7.03
2019-01-18T17:25:59.740Z,7.90
2019-01-18T17:28:27.864Z,6.77
2019-01-18T17:30:55.842Z,7.47
2019-01-18T17:33:23.875Z,7.30
2019-01-18T17:36:03.408Z,7.67
2019-01-18T17:39:03.165Z,7.30
2019-01-18T17:41:50.438Z,8.20
2019-01-18T17:44:49.586Z,7.30
2019-01-18T17:47:42.897Z,8.13
2019-01-18T17:50:26.008Z,7.57
2019-01-18T17:53:11.793Z,7.70
2019-01-18T17:56:04.727Z,7.33
2019-01-18T17:58:50.343Z,7.57
2019-01-18T18:01:32.382Z,7.77
2019-01-18T18:04:18.232Z,8.13
2019-01-18T18:07:11.470Z,9.07
2019-01-18T18:10:07.512Z,8.57
2019-01-18T18:12:53.448Z,9.83
2019-01-18T18:15:42.476Z,10.80
2019-01-18T18:18:38.648Z,12.20
2019-01-18T18:21:38.013Z,14.40
2019-01-18T18:24:25.943Z,13.60
2019-01-18T18:27:04.502Z,13.23
2019-01-18T18:29:50.383Z,15.03
2019-01-18T18:32:55.966Z,16.23
2019-01-18T18:35:50.189Z,17.30
2019-01-18T18:38:44.584Z,17.00
2019-01-18T18:41:40.977Z,17.83
2019-01-18T18:44:23.180Z,17.80
2019-01-18T18:46:55.814Z,18.90
2019-01-18T18:49:47.404Z,19.00
2019-01-18T18:52:23.661Z,19.20
2019-01-18T18:55:09.411Z,20.73
2019-01-18T18:57:55.113Z,18.60
2019-01-18T19:00:52.582Z,20.07
2019-01-18T19:03:42.474Z,19.67
2019-01-18T19:06:16.224Z,18.53
2019-01-18T19:08:49.472Z,19.43
2019-01-18T19:11:27.235Z,19.80
2019-01-18T19:14:13.997Z,20.17
2019-01-18T19:17:02.888Z,19.70
2019-01-18T19:19:39.369Z,19.83
2019-01-18T19:22:32.323Z,19.30
2019-01-18T19:25:16.878Z,18.77
2019-01-18T19:27:50.609Z,19.80
2019-01-18T19:30:57.359Z,18.30
2019-01-18T19:33:44.508Z,18.30
2019-01-18T19:36:31.083Z,18.53
2019-01-18T19:39:21.366Z,16.57
2019-01-18T19:42:08.553Z,16.93
2019-01-18T19:45:03.050Z,16.63
2019-01-18T19:47:43.575Z,16.80
2019-01-18T19:50:33.603Z,15.33
2019-01-18T19:53:24.425Z,16.47
2019-01-18T19:56:11.509Z,15.37
2019-01-18T19:59:10.769Z,15.43
2019-01-18T20:01:45.635Z,15.30
2019-01-18T20:04:26.631Z,14.33
2019-01-18T20:07:15.497Z,14.40
2019-01-18T20:09:47.056Z,14.13
2019-01-18T20:12:28.859Z,14.13
2019-01-18T20:15:00.447Z,14.63
2019-01-18T20:17:46.348Z,13.70
2019-01-18T20:20:21.076Z,14.33
2019-01-18T20:23:07.041Z,14.77
2019-01-18T20:25:48.791Z,14.70
2019-01-18T20:28:34.693Z,13.47
2019-01-18T20:31:20.377Z,13.33
2019-01-18T20:34:10.514Z,14.50
2019-01-18T20:36:56.860Z,16.23
2019-01-18T20:39:40.535Z,13.90
2019-01-18T20:42:21.274Z,14.57
2019-01-18T20:45:00.182Z,14.23
2019-01-18T20:47:53.147Z,14.00
2019-01-18T20:50:40.399Z,14.37
2019-01-18T20:53:36.511Z,14.80
2019-01-18T20:56:29.732Z,14.90
2019-01-18T20:59:03.260Z,15.03
2019-01-18T21:01:52.964Z,15.60
2019-01-18T21:04:46.301Z,16.70
2019-01-18T21:07:23.787Z,14.40
2019-01-18T21:10:10.912Z,17.03
2019-01-18T21:12:50.934Z,16.57
2019-01-18T21:15:23.212Z,18.00
2019-01-18T21:18:12.438Z,19.33
2019-01-18T21:20:59.689Z,20.57
2019-01-18T21:23:46.913Z,19.63
2019-01-18T21:26:32.925Z,20.67
2019-01-18T21:29:20.652Z,21.47
2019-01-18T21:32:12.121Z,21.17
2019-01-18T21:34:58.265Z,22.70
2019-01-18T21:38:00.536Z,22.93
2019-01-18T21:40:48.659Z,22.77
2019-01-18T21:43:44.846Z,23.67
2019-01-18T21:46:27.643Z,24.37
2019-01-18T21:49:19.010Z,25.23
2019-01-18T21:52:06.233Z,26.30
2019-01-18T21:54:56.499Z,25.53
2019-01-18T21:57:39.906Z,26.17
2019-01-18T22:00:24.160Z,25.93
2019-01-18T22:03:14.499Z,26.83
2019-01-18T22:05:53.508Z,25.10
2019-01-18T22:08:35.447Z,26.83
2019-01-18T22:11:23.040Z,27.90
2019-01-18T22:14:14.070Z,25.93
2019-01-18T22:17:01.091Z,26.60
2019-01-18T22:19:48.370Z,27.43
2019-01-18T22:22:20.261Z,26.83
2019-01-18T22:25:06.007Z,26.67
2019-01-18T22:27:44.283Z,26.80
2019-01-18T22:30:34.372Z,26.40
2019-01-18T22:33:11.234Z,26.77
2019-01-18T22:35:53.767Z,26.03
2019-01-18T22:38:49.599Z,26.53
2019-01-18T22:41:34.660Z,27.10
2019-01-18T22:44:16.585Z,26.67
2019-01-18T22:47:16.029Z,27.53
2019-01-18T22:49:49.662Z,26.53
2019-01-18T22:52:22.346Z,25.97
2019-01-18T22:55:12.205Z,26.20
2019-01-18T22:57:58.072Z,24.07
2019-01-18T23:00:59.771Z,26.27
2019-01-18T23:03:55.841Z,25.50
2019-01-18T23:06:46.006Z,24.00
2019-01-18T23:09:37.426Z,24.07
2019-01-18T23:12:27.262Z,22.97
2019-01-18T23:15:29.723Z,23.90
2019-01-18T23:18:03.674Z,23.67
2019-01-18T23:20:49.420Z,22.80
2019-01-18T23:23:27.073Z,24.03
2019-01-18T23:26:14.343Z,22.30
2019-01-18T23:28:50.442Z,22.93
2019-01-18T23:31:49.529Z,23.43
2019-01-18T23:34:36.648Z,21.73
2019-01-18T23:37:16.922Z,21.90
2019-01-18T23:39:56.602Z,22.37
2019-01-18T23:42:42.527Z,22.13
2019-01-18T23:45:28.471Z,22.13
2019-01-18T23:48:14.309Z,21.77
2019-01-18T23:51:01.380Z,22.60
2019-01-18T23:53:35.316Z,20.90
2019-01-18T23:56:21.231Z,21.17
2019-01-18T23:58:54.881Z,21.37
